createdAt,value
2017-11-10T00:00:24.298Z,27.43
2017-11-10T00:02:50.258Z,29.27
2017-11-10T00:05:17.042Z,28.10
2017-11-10T00:07:42.992Z,27.67
2017-11-10T00:10:09.698Z,26.47
2017-11-10T00:12:35.706Z,27.07
2017-11-10T00:15:01.642Z,24.47
2017-11-10T00:17:27.641Z,28.83
2017-11-10T00:19:54.315Z,27.73
2017-11-10T00:22:20.267Z,27.70
2017-11-10T00:24:46.241Z,26.80
2017-11-10T00:27:12.228Z,24.60
2017-11-10T00:29:38.234Z,27.63
2017-11-10T00:32:04.924Z,27.00
2017-11-10T00:34:30.869Z,26.00
2017-11-10T00:36:56.854Z,26.17
2017-11-10T00:39:22.874Z,26.03
2017-11-10T00:41:48.828Z,25.53
2017-11-10T00:44:14.811Z,26.23
2017-11-10T00:46:40.842Z,25.70
2017-11-10T00:49:06.846Z,24.30
2017-11-10T00:51:33.535Z,25.40
2017-11-10T00:53:59.528Z,25.10
2017-11-10T00:56:26.224Z,24.37
2017-11-10T00:58:52.245Z,23.60
2017-11-10T01:01:18.239Z,25.53
2017-11-10T01:03:44.177Z,23.97
2017-11-10T01:06:10.145Z,23.20
2017-11-10T01:08:36.166Z,24.40
2017-11-10T01:11:02.907Z,22.57
2017-11-10T01:13:28.851Z,25.90
2017-11-10T01:15:55.599Z,24.00
2017-11-10T01:18:22.341Z,22.83
2017-11-10T01:20:49.052Z,24.30
2017-11-10T01:23:15.021Z,23.07
2017-11-10T01:25:41.308Z,23.40
2017-11-10T01:28:07.289Z,24.90
2017-11-10T01:30:33.262Z,23.70
2017-11-10T01:32:59.955Z,24.13
2017-11-10T01:35:25.932Z,25.67
2017-11-10T01:37:51.953Z,21.27
2017-11-10T01:40:17.902Z,23.00
2017-11-10T01:42:43.877Z,21.70
2017-11-10T01:45:09.898Z,22.00
2017-11-10T01:47:36.621Z,21.67
2017-11-10T01:50:03.541Z,20.50
2017-11-10T01:52:29.517Z,20.30
2017-11-10T01:54:55.569Z,20.70
2017-11-10T01:57:21.557Z,21.33
2017-11-10T01:59:47.538Z,20.10
2017-11-10T02:02:13.539Z,19.37
2017-11-10T02:04:39.642Z,19.67
2017-11-10T02:07:05.687Z,21.53
2017-11-10T02:09:31.677Z,20.20
2017-11-10T02:11:57.695Z,17.80
2017-11-10T02:14:26.621Z,17.47
2017-11-10T02:16:52.650Z,18.77
2017-11-10T02:19:19.382Z,19.47
2017-11-10T02:21:45.366Z,18.90
2017-11-10T02:24:12.050Z,17.63
2017-11-10T02:26:37.985Z,18.00
2017-11-10T02:29:03.995Z,18.53
2017-11-10T02:31:30.695Z,17.13
2017-11-10T02:33:56.715Z,18.70
2017-11-10T02:36:22.671Z,18.10
2017-11-10T02:38:48.621Z,19.70
2017-11-10T02:41:14.601Z,19.53
2017-11-10T02:43:40.619Z,18.83
2017-11-10T02:46:06.559Z,18.40
2017-11-10T02:48:33.242Z,20.20
2017-11-10T02:50:59.231Z,20.83
2017-11-10T02:53:25.223Z,20.50
2017-11-10T02:55:51.209Z,19.03
2017-11-10T02:58:17.198Z,18.40
2017-11-10T03:00:43.184Z,19.50
2017-11-10T03:03:09.943Z,19.43
2017-11-10T03:05:36.702Z,20.40
2017-11-10T03:08:03.399Z,21.07
2017-11-10T03:10:29.375Z,18.53
2017-11-10T03:12:55.339Z,20.37
2017-11-10T03:15:21.338Z,20.17
2017-11-10T03:17:47.299Z,20.03
2017-11-10T03:20:14.003Z,20.40
2017-11-10T03:22:40.056Z,21.03
2017-11-10T03:25:06.778Z,20.43
2017-11-10T03:27:32.738Z,20.73
2017-11-10T03:29:58.730Z,21.30
2017-11-10T03:32:24.671Z,20.80
2017-11-10T03:34:50.663Z,22.67
2017-11-10T03:37:18.147Z,23.17
2017-11-10T03:39:44.854Z,23.27
2017-11-10T03:42:10.867Z,23.67
2017-11-10T03:44:37.036Z,22.87
2017-11-10T03:47:02.990Z,23.53
2017-11-10T03:49:28.976Z,23.80
2017-11-10T03:51:54.971Z,23.37
2017-11-10T03:54:20.931Z,22.07
2017-11-10T03:56:47.619Z,23.80
2017-11-10T03:59:13.582Z,22.57
2017-11-10T04:01:39.555Z,24.77
2017-11-10T04:04:05.559Z,22.67
2017-11-10T04:06:31.511Z,23.40
2017-11-10T04:08:58.206Z,25.13
2017-11-10T04:11:24.187Z,25.23
2017-11-10T04:13:50.886Z,24.03
2017-11-10T04:16:16.834Z,23.80
2017-11-10T04:18:42.803Z,22.87
2017-11-10T04:21:09.491Z,23.13
2017-11-10T04:23:36.226Z,24.37
2017-11-10T04:26:02.926Z,23.40
2017-11-10T04:28:28.921Z,21.43
2017-11-10T04:30:55.683Z,21.67
2017-11-10T04:33:22.383Z,20.80
2017-11-10T04:35:48.332Z,22.57
2017-11-10T04:38:14.342Z,23.70
2017-11-10T04:40:40.301Z,22.27
2017-11-10T04:43:06.247Z,22.30
2017-11-10T04:45:32.219Z,19.93
2017-11-10T04:47:58.942Z,22.50
2017-11-10T04:50:24.951Z,22.47
2017-11-10T04:52:50.918Z,22.00
2017-11-10T04:55:16.908Z,21.47
2017-11-10T04:57:42.858Z,22.10
2017-11-10T05:00:08.803Z,19.47
2017-11-10T05:02:34.803Z,20.93
2017-11-10T05:05:00.791Z,20.20
2017-11-10T05:07:26.777Z,20.80
2017-11-10T05:09:52.763Z,21.27
2017-11-10T05:12:18.747Z,20.73
2017-11-10T05:14:44.691Z,21.80
2017-11-10T05:17:10.684Z,18.17
2017-11-10T05:19:37.412Z,18.10
2017-11-10T05:22:04.127Z,19.83
2017-11-10T05:24:30.108Z,19.00
2017-11-10T05:26:56.164Z,19.13
2017-11-10T05:29:22.842Z,19.47
2017-11-10T05:31:48.792Z,18.10
2017-11-10T05:34:14.802Z,18.13
2017-11-10T05:36:40.762Z,14.87
2017-11-10T05:39:06.732Z,16.33
2017-11-10T05:41:32.759Z,15.47
2017-11-10T05:43:58.773Z,18.03
2017-11-10T05:46:24.740Z,16.97
2017-11-10T05:48:50.738Z,16.87
2017-11-10T05:51:16.718Z,17.63
2017-11-10T05:53:42.712Z,16.27
2017-11-10T05:56:08.673Z,17.13
2017-11-10T05:58:34.740Z,17.40
2017-11-10T06:01:02.520Z,16.90
2017-11-10T06:03:28.590Z,17.00
2017-11-10T06:05:54.578Z,15.67
2017-11-10T06:08:20.528Z,15.43
2017-11-10T06:10:47.261Z,15.53
2017-11-10T06:13:13.255Z,16.93
2017-11-10T06:15:39.214Z,17.57
2017-11-10T06:18:05.162Z,16.33
2017-11-10T06:20:31.149Z,18.80
2017-11-10T06:22:57.158Z,16.20
2017-11-10T06:25:23.150Z,17.63
2017-11-10T06:27:49.103Z,16.90
2017-11-10T06:30:15.063Z,18.53
2017-11-10T06:32:41.059Z,17.40
2017-11-10T06:35:07.006Z,18.83
2017-11-10T06:37:33.019Z,21.10
2017-11-10T06:39:58.982Z,16.50
2017-11-10T06:42:24.958Z,15.97
2017-11-10T06:44:51.695Z,18.83
2017-11-10T06:47:17.658Z,16.20
2017-11-10T06:49:44.366Z,19.00
2017-11-10T06:52:10.346Z,17.37
2017-11-10T06:54:37.045Z,16.90
2017-11-10T06:57:03.024Z,17.57
2017-11-10T06:59:29.736Z,15.10
2017-11-10T07:01:55.757Z,15.60
2017-11-10T07:04:21.710Z,15.47
2017-11-10T07:06:47.701Z,15.10
2017-11-10T07:09:13.694Z,16.50
2017-11-10T07:11:39.645Z,16.73
2017-11-10T07:14:05.634Z,17.23
2017-11-10T07:16:31.614Z,14.73
2017-11-10T07:18:57.662Z,15.90
2017-11-10T07:21:24.395Z,16.33
2017-11-10T07:23:51.140Z,16.27
2017-11-10T07:26:17.094Z,17.23
2017-11-10T07:28:43.091Z,16.27
2017-11-10T07:31:09.092Z,14.77
2017-11-10T07:33:35.068Z,16.20
2017-11-10T07:36:01.058Z,14.33
2017-11-10T07:38:34.914Z,16.50
2017-11-10T07:41:00.886Z,14.87
2017-11-10T07:43:26.877Z,16.13
2017-11-10T07:45:52.866Z,14.43
2017-11-10T07:48:18.824Z,15.20
2017-11-10T07:50:44.781Z,15.40
2017-11-10T07:53:10.760Z,16.73
2017-11-10T07:55:36.758Z,15.80
2017-11-10T07:58:02.795Z,14.33
2017-11-10T08:00:28.756Z,15.00
2017-11-10T08:02:54.746Z,16.07
2017-11-10T08:05:20.727Z,17.07
2017-11-10T08:07:46.719Z,16.67
2017-11-10T08:10:12.722Z,16.90
2017-11-10T08:12:38.723Z,16.70
2017-11-10T08:15:04.712Z,16.27
2017-11-10T08:17:31.667Z,16.50
2017-11-10T08:19:58.430Z,18.07
2017-11-10T08:22:25.144Z,16.80
2017-11-10T08:24:51.150Z,16.60
2017-11-10T08:27:17.138Z,18.30
2017-11-10T08:29:43.906Z,16.00
2017-11-10T08:32:10.672Z,17.70
2017-11-10T08:34:36.649Z,17.00
2017-11-10T08:37:02.650Z,16.57
2017-11-10T08:39:28.603Z,17.80
2017-11-10T08:41:54.556Z,19.53
2017-11-10T08:44:20.557Z,19.07
2017-11-10T08:46:46.528Z,17.80
2017-11-10T08:49:12.739Z,16.57
2017-11-10T08:51:38.750Z,17.03
2017-11-10T08:54:05.483Z,16.60
2017-11-10T08:56:31.431Z,17.87
2017-11-10T08:58:57.399Z,15.83
2017-11-10T09:01:23.400Z,15.50
2017-11-10T09:03:49.347Z,16.47
2017-11-10T09:06:16.060Z,17.40
2017-11-10T09:08:42.093Z,17.87
2017-11-10T09:11:08.042Z,18.20
2017-11-10T09:13:34.002Z,18.03
2017-11-10T09:16:00.738Z,17.70
2017-11-10T09:18:26.725Z,17.60
2017-11-10T09:20:59.739Z,15.43
2017-11-10T09:23:25.700Z,17.00
2017-11-10T09:25:51.697Z,16.30
2017-11-10T09:28:33.672Z,15.80
2017-11-10T09:30:59.671Z,15.57
2017-11-10T09:33:31.594Z,14.50
2017-11-10T09:35:58.315Z,12.73
2017-11-10T09:38:25.310Z,12.53
2017-11-10T09:40:57.975Z,12.00
2017-11-10T09:43:30.791Z,13.03
2017-11-10T09:46:13.437Z,11.67
2017-11-10T09:48:45.582Z,13.20
2017-11-10T09:51:17.506Z,11.87
2017-11-10T09:53:43.479Z,11.93
2017-11-10T09:59:22.139Z,12.17
2017-11-10T10:01:54.297Z,11.87
2017-11-10T10:04:26.463Z,10.50
2017-11-10T10:06:58.667Z,10.03
2017-11-10T10:09:30.803Z,11.80
2017-11-10T10:15:04.669Z,10.37
2017-11-10T10:17:33.538Z,11.40
2017-11-10T10:20:05.588Z,11.40
2017-11-10T10:22:35.486Z,9.90
2017-11-10T10:25:02.223Z,10.50
2017-11-10T10:27:28.973Z,10.70
2017-11-10T10:29:55.745Z,10.67
2017-11-10T10:32:21.736Z,9.00
2017-11-10T10:34:47.696Z,10.80
2017-11-10T10:37:13.685Z,8.57
2017-11-10T10:39:39.643Z,8.50
2017-11-10T10:42:05.626Z,8.90
2017-11-10T10:44:32.402Z,9.27
2017-11-10T10:46:58.363Z,9.43
2017-11-10T10:49:24.351Z,9.30
2017-11-10T10:51:50.398Z,6.87
2017-11-10T10:54:16.406Z,8.73
2017-11-10T10:56:43.111Z,8.10
2017-11-10T10:59:09.107Z,8.50
2017-11-10T11:01:35.873Z,8.90
2017-11-10T11:04:01.879Z,10.10
2017-11-10T11:06:27.844Z,7.93
2017-11-10T11:08:53.797Z,7.30
2017-11-10T11:11:19.843Z,8.50
2017-11-10T11:13:45.872Z,9.50
2017-11-10T11:16:11.842Z,8.07
2017-11-10T11:18:37.863Z,7.67
2017-11-10T11:21:03.855Z,7.80
2017-11-10T11:23:30.574Z,7.13
2017-11-10T11:25:56.565Z,7.30
2017-11-10T11:28:22.527Z,8.27
2017-11-10T11:30:48.523Z,7.23
2017-11-10T11:33:15.284Z,7.40
2017-11-10T11:35:41.239Z,6.90
2017-11-10T11:38:07.227Z,7.77
2017-11-10T11:40:33.187Z,6.87
2017-11-10T11:42:59.919Z,6.40
2017-11-10T11:45:25.878Z,6.23
2017-11-10T11:47:51.858Z,6.07
2017-11-10T11:50:17.846Z,5.50
2017-11-10T11:52:44.623Z,5.23
2017-11-10T11:55:10.631Z,5.80
2017-11-10T11:57:37.355Z,6.53
2017-11-10T12:00:03.322Z,6.23
2017-11-10T12:02:30.061Z,5.93
2017-11-10T12:04:56.023Z,5.70
2017-11-10T12:07:21.986Z,6.17
2017-11-10T12:09:47.975Z,4.90
2017-11-10T12:12:14.735Z,5.50
2017-11-10T12:14:41.470Z,5.53
2017-11-10T12:17:07.419Z,6.10
2017-11-10T12:19:34.134Z,5.90
2017-11-10T12:22:00.164Z,5.60
2017-11-10T12:24:26.151Z,5.37
2017-11-10T12:26:52.950Z,4.90
2017-11-10T12:29:18.907Z,5.40
2017-11-10T12:31:44.891Z,4.97
2017-11-10T12:34:10.846Z,5.63
2017-11-10T12:36:36.848Z,4.60
2017-11-10T12:39:03.542Z,5.00
2017-11-10T12:41:29.502Z,4.70
2017-11-10T12:43:55.499Z,4.80
2017-11-10T12:46:21.447Z,4.83
2017-11-10T12:48:47.448Z,4.33
2017-11-10T12:51:14.154Z,3.70
2017-11-10T12:53:40.195Z,4.13
2017-11-10T12:56:06.171Z,4.10
2017-11-10T12:58:32.143Z,3.70
2017-11-10T13:00:58.138Z,5.27
2017-11-10T13:03:24.844Z,3.80
2017-11-10T13:05:50.798Z,3.83
2017-11-10T13:08:16.806Z,4.10
2017-11-10T13:10:42.784Z,3.40
2017-11-10T13:13:09.543Z,3.40
2017-11-10T13:15:36.272Z,3.60
2017-11-10T13:18:02.296Z,3.20
2017-11-10T13:20:28.259Z,3.37
2017-11-10T13:22:54.240Z,3.23
2017-11-10T13:25:20.227Z,2.70
2017-11-10T13:27:47.036Z,3.20
2017-11-10T13:30:13.037Z,2.80
2017-11-10T13:32:39.048Z,2.83
2017-11-10T13:35:05.056Z,3.50
2017-11-10T13:37:31.043Z,3.00
2017-11-10T13:39:57.762Z,3.70
2017-11-10T13:42:23.815Z,2.80
2017-11-10T13:44:49.767Z,2.67
2017-11-10T13:47:15.747Z,2.53
2017-11-10T13:49:41.796Z,2.30
2017-11-10T13:52:07.778Z,2.77
2017-11-10T13:54:34.567Z,2.70
2017-11-10T13:57:00.519Z,2.53
2017-11-10T13:59:26.489Z,2.50
2017-11-10T14:01:52.483Z,2.93
2017-11-10T14:04:18.476Z,2.10
2017-11-10T14:06:45.207Z,1.70
2017-11-10T14:09:11.213Z,2.27
2017-11-10T14:11:37.211Z,2.43
2017-11-10T14:14:03.963Z,1.90
2017-11-10T14:16:30.683Z,1.70
2017-11-10T14:18:56.676Z,2.70
2017-11-10T14:21:22.696Z,2.40
2017-11-10T14:23:48.675Z,2.23
2017-11-10T14:26:14.704Z,2.07
2017-11-10T14:28:40.715Z,2.27
2017-11-10T14:31:06.678Z,2.27
2017-11-10T14:33:32.636Z,2.60
2017-11-10T14:35:59.386Z,2.10
2017-11-10T14:38:26.092Z,2.73
2017-11-10T14:40:52.099Z,2.17
2017-11-10T14:43:18.154Z,2.13
2017-11-10T14:45:44.894Z,2.27
2017-11-10T14:48:11.662Z,3.73
2017-11-10T14:50:38.405Z,2.73
2017-11-10T14:53:05.115Z,1.97
2017-11-10T14:55:31.202Z,2.07
2017-11-10T14:57:57.287Z,2.10
2017-11-10T15:00:23.289Z,1.57
2017-11-10T15:02:49.254Z,1.73
2017-11-10T15:05:15.246Z,1.77
2017-11-10T15:07:42.085Z,1.70
2017-11-10T15:10:08.787Z,1.90
2017-11-10T15:12:34.740Z,2.33
2017-11-10T15:15:00.725Z,2.00
2017-11-10T15:17:26.707Z,2.33
2017-11-10T15:19:52.698Z,1.83
2017-11-10T15:22:19.402Z,2.43
2017-11-10T15:24:45.427Z,2.40
2017-11-10T15:27:11.407Z,2.20
2017-11-10T15:29:37.419Z,2.30
2017-11-10T15:32:03.374Z,2.23
2017-11-10T15:34:29.335Z,2.50
2017-11-10T15:36:56.087Z,2.57
2017-11-10T15:39:22.802Z,2.33
2017-11-10T15:41:48.792Z,2.00
2017-11-10T15:44:14.816Z,2.10
2017-11-10T15:46:40.822Z,2.40
2017-11-10T15:49:08.302Z,2.00
2017-11-10T15:51:34.307Z,1.97
2017-11-10T15:54:00.266Z,2.60
2017-11-10T15:56:26.236Z,2.67
2017-11-10T15:58:52.975Z,2.30
2017-11-10T16:01:19.723Z,1.90
2017-11-10T16:03:45.716Z,2.30
2017-11-10T16:06:11.739Z,2.80
2017-11-10T16:08:37.739Z,2.83
2017-11-10T16:11:04.487Z,1.73
2017-11-10T16:13:31.250Z,1.80
2017-11-10T16:15:57.952Z,2.07
2017-11-10T16:18:23.930Z,2.27
2017-11-10T16:20:49.938Z,1.90
2017-11-10T16:23:15.919Z,2.37
2017-11-10T16:25:42.660Z,2.00
2017-11-10T16:28:09.411Z,1.80
2017-11-10T16:30:36.107Z,1.27
2017-11-10T16:33:02.126Z,1.60
2017-11-10T16:35:28.127Z,1.83
2017-11-10T16:37:54.118Z,2.10
2017-11-10T16:40:20.131Z,1.47
2017-11-10T16:42:46.832Z,1.30
2017-11-10T16:45:12.859Z,1.73
2017-11-10T16:47:38.828Z,1.63
2017-11-10T16:50:04.792Z,1.43
2017-11-10T16:52:30.854Z,1.80
2017-11-10T16:54:56.822Z,1.80
2017-11-10T16:57:22.803Z,1.47
2017-11-10T16:59:48.797Z,1.50
2017-11-10T17:02:14.821Z,1.57
2017-11-10T17:04:41.618Z,2.20
2017-11-10T17:07:09.796Z,1.47
2017-11-10T17:09:36.542Z,1.63
2017-11-10T17:12:02.499Z,1.37
2017-11-10T17:14:29.261Z,1.93
2017-11-10T17:16:55.239Z,1.80
2017-11-10T17:19:21.219Z,1.50
2017-11-10T17:21:47.226Z,1.93
2017-11-10T17:24:14.046Z,1.50
2017-11-10T17:26:39.995Z,1.80
2017-11-10T17:29:06.012Z,1.60
2017-11-10T17:31:31.971Z,1.80
2017-11-10T17:33:57.975Z,1.50
2017-11-10T17:36:23.927Z,2.10
2017-11-10T17:38:49.877Z,2.10
2017-11-10T17:41:15.875Z,2.23
2017-11-10T17:43:41.847Z,1.90
2017-11-10T17:46:07.879Z,1.73
2017-11-10T17:48:33.826Z,1.50
2017-11-10T17:51:06.903Z,4.47
2017-11-10T17:53:32.997Z,2.40
2017-11-10T17:55:59.736Z,1.70
2017-11-10T17:58:25.730Z,2.13
2017-11-10T18:00:51.724Z,2.43
2017-11-10T18:03:17.666Z,2.57
2017-11-10T18:05:44.417Z,2.30
2017-11-10T18:08:11.170Z,2.53
2017-11-10T18:10:37.135Z,2.60
2017-11-10T18:13:03.248Z,2.60
2017-11-10T18:15:30.030Z,2.20
2017-11-10T18:17:56.005Z,6.37
2017-11-10T18:20:22.058Z,3.00
2017-11-10T18:22:47.998Z,3.83
2017-11-10T18:25:13.984Z,3.90
2017-11-10T18:27:40.107Z,4.37
2017-11-10T18:30:06.631Z,4.20
2017-11-10T18:32:33.576Z,12.23
2017-11-10T18:35:00.773Z,16.87
2017-11-10T18:37:27.002Z,4.10
2017-11-10T18:39:53.748Z,10.40
2017-11-10T18:42:19.806Z,4.80
2017-11-10T18:44:45.895Z,3.13
2017-11-10T18:47:11.923Z,2.60
2017-11-10T18:49:37.951Z,3.00
2017-11-10T18:52:03.919Z,2.93
2017-11-10T18:54:32.154Z,4.20
2017-11-10T18:56:58.231Z,2.23
2017-11-10T18:59:24.202Z,2.43
2017-11-10T19:01:50.911Z,2.30
2017-11-10T19:04:17.091Z,2.80
2017-11-10T19:06:43.051Z,2.67
2017-11-10T19:09:10.436Z,2.23
2017-11-10T19:11:36.942Z,6.10
2017-11-10T19:14:04.272Z,2.50
2017-11-10T19:16:32.359Z,3.13
2017-11-10T19:18:58.927Z,2.20
2017-11-10T19:21:24.951Z,1.93
2017-11-10T19:23:50.974Z,2.70
2017-11-10T19:26:17.021Z,1.80
2017-11-10T19:28:43.019Z,4.10
2017-11-10T19:31:09.035Z,2.60
2017-11-10T19:33:35.831Z,3.13
2017-11-10T19:36:02.829Z,2.60
2017-11-10T19:38:28.859Z,2.73
2017-11-10T19:40:54.859Z,2.40
2017-11-10T19:43:20.854Z,1.90
2017-11-10T19:45:47.622Z,2.10
2017-11-10T19:48:14.310Z,1.63
2017-11-10T19:50:40.267Z,1.10
2017-11-10T19:53:06.263Z,1.47
2017-11-10T19:55:32.283Z,1.23
2017-11-10T19:57:59.152Z,1.53
2017-11-10T20:00:25.112Z,1.27
2017-11-10T20:02:51.159Z,1.30
2017-11-10T20:05:17.119Z,0.90
2017-11-10T20:07:43.111Z,1.30
2017-11-10T20:10:09.114Z,1.60
2017-11-10T20:12:35.855Z,1.20
2017-11-10T20:15:01.941Z,1.73
2017-11-10T20:17:27.997Z,1.70
2017-11-10T20:19:54.078Z,1.73
2017-11-10T20:22:20.827Z,1.47
2017-11-10T20:24:48.505Z,2.83
2017-11-10T20:27:15.207Z,1.53
2017-11-10T20:29:41.260Z,1.20
2017-11-10T20:32:07.214Z,2.13
2017-11-10T20:34:34.671Z,1.20
2017-11-10T20:37:00.771Z,2.13
2017-11-10T20:39:26.864Z,2.63
2017-11-10T20:41:52.966Z,2.30
2017-11-10T20:44:18.975Z,1.50
2017-11-10T20:46:45.013Z,1.60
2017-11-10T20:49:10.978Z,1.80
2017-11-10T20:51:36.978Z,1.27
2017-11-10T20:54:03.692Z,7.23
2017-11-10T20:56:29.752Z,1.70
2017-11-10T20:58:55.710Z,1.33
2017-11-10T21:01:22.430Z,1.30
2017-11-10T21:03:48.418Z,1.13
2017-11-10T21:06:14.366Z,1.77
2017-11-10T21:08:40.347Z,1.53
2017-11-10T21:11:06.978Z,1.40
2017-11-10T21:13:33.113Z,1.63
2017-11-10T21:15:59.103Z,1.50
2017-11-10T21:18:25.852Z,1.33
2017-11-10T21:20:52.584Z,1.53
2017-11-10T21:23:19.342Z,1.50
2017-11-10T21:25:45.330Z,1.70
2017-11-10T21:28:11.310Z,1.53
2017-11-10T21:30:37.307Z,1.30
2017-11-10T21:33:03.301Z,1.63
2017-11-10T21:35:29.419Z,1.60
2017-11-10T21:37:55.419Z,1.97
2017-11-10T21:40:21.375Z,1.60
2017-11-10T21:42:48.150Z,1.77
2017-11-10T21:45:14.168Z,1.80
2017-11-10T21:47:40.161Z,1.90
2017-11-10T21:50:06.143Z,2.20
2017-11-10T21:52:32.182Z,1.93
2017-11-10T21:54:58.311Z,2.20
2017-11-10T21:57:24.282Z,2.10
2017-11-10T21:59:51.020Z,2.17
2017-11-10T22:02:16.979Z,2.03
2017-11-10T22:04:43.725Z,1.70
2017-11-10T22:07:10.474Z,2.40
2017-11-10T22:09:37.510Z,3.03
2017-11-10T22:12:03.571Z,1.83
2017-11-10T22:14:30.366Z,1.73
2017-11-10T22:16:56.321Z,2.43
2017-11-10T22:19:22.310Z,2.10
2017-11-10T22:21:49.022Z,2.47
2017-11-10T22:24:15.012Z,2.50
2017-11-10T22:26:41.714Z,1.80
2017-11-10T22:29:07.710Z,1.63
2017-11-10T22:31:33.776Z,1.80
2017-11-10T22:33:59.816Z,1.80
2017-11-10T22:36:32.764Z,3.97
2017-11-10T22:38:59.504Z,3.10
2017-11-10T22:41:25.690Z,5.43
2017-11-10T22:43:51.666Z,3.47
2017-11-10T22:46:17.647Z,2.40
2017-11-10T22:48:43.636Z,2.60
2017-11-10T22:51:09.600Z,2.33
2017-11-10T22:53:36.335Z,3.40
2017-11-10T22:56:02.356Z,3.40
2017-11-10T22:58:28.568Z,2.10
2017-11-10T23:00:54.573Z,2.47
2017-11-10T23:03:21.267Z,2.23
2017-11-10T23:05:47.239Z,2.80
2017-11-10T23:08:13.256Z,2.20
2017-11-10T23:10:39.232Z,2.27
2017-11-10T23:13:05.243Z,1.83
2017-11-10T23:15:31.263Z,1.50
2017-11-10T23:17:57.294Z,2.30
2017-11-10T23:20:23.290Z,2.60
2017-11-10T23:22:49.239Z,2.00
2017-11-10T23:25:15.279Z,3.77
2017-11-10T23:27:41.271Z,2.47
2017-11-10T23:30:07.237Z,3.37
2017-11-10T23:32:33.219Z,1.87
2017-11-10T23:34:59.197Z,2.67
2017-11-10T23:37:25.927Z,1.60
2017-11-10T23:39:51.882Z,1.80
2017-11-10T23:42:18.588Z,1.40
2017-11-10T23:44:44.576Z,2.10
2017-11-10T23:47:11.313Z,2.37
2017-11-10T23:49:37.257Z,1.63
2017-11-10T23:52:03.955Z,1.60
2017-11-10T23:54:29.943Z,1.33
2017-11-10T23:56:56.664Z,2.00
2017-11-10T23:59:22.650Z,1.90
